createdAt,value
2023-03-22T00:00:02.445Z,99961.50
2023-03-22T00:00:57.597Z,99973.94
2023-03-22T00:01:44.473Z,99962.47
2023-03-22T00:02:18.567Z,99966.72
2023-03-22T00:03:05.476Z,99961.00
2023-03-22T00:03:46.538Z,99966.94
2023-03-22T00:04:40.612Z,99964.69
2023-03-22T00:05:34.399Z,99955.66
2023-03-22T00:06:29.454Z,99976.56
2023-03-22T00:07:23.419Z,99964.16
2023-03-22T00:08:17.420Z,99955.44
2023-03-22T00:09:04.437Z,99975.31
2023-03-22T00:09:38.515Z,99971.13
2023-03-22T00:10:26.410Z,99958.19
2023-03-22T00:11:00.580Z,99967.97
2023-03-22T00:11:47.408Z,99968.34
2023-03-22T00:12:21.488Z,99965.94
2023-03-22T00:13:08.419Z,99957.19
2023-03-22T00:13:43.929Z,99962.00
2023-03-22T00:14:25.479Z,99943.25
2023-03-22T00:15:07.509Z,99954.31
2023-03-22T00:15:51.487Z,99958.59
2023-03-22T00:16:31.557Z,99958.22
2023-03-22T00:17:12.407Z,99946.41
2023-03-22T00:17:52.505Z,99962.09
2023-03-22T00:18:34.408Z,99960.47
2023-03-22T00:19:14.476Z,99953.63
2023-03-22T00:19:55.570Z,99947.22
2023-03-22T00:20:39.387Z,99933.81
2023-03-22T00:21:22.400Z,99952.72
2023-03-22T00:22:06.022Z,99923.22
2023-03-22T00:22:47.407Z,99957.25
2023-03-22T00:23:30.552Z,99952.22
2023-03-22T00:24:11.382Z,99922.25
2023-03-22T00:24:51.489Z,99951.25
2023-03-22T00:25:32.404Z,99951.16
2023-03-22T00:26:13.538Z,99951.31
2023-03-22T00:26:54.411Z,99934.66
2023-03-22T00:27:34.525Z,99942.50
2023-03-22T00:28:14.408Z,99944.50
2023-03-22T00:28:54.512Z,99927.91
2023-03-22T00:29:36.387Z,99942.50
2023-03-22T00:30:17.484Z,99942.22
2023-03-22T00:31:06.501Z,99947.50
2023-03-22T00:31:49.058Z,99936.94
2023-03-22T00:32:29.374Z,99942.94
2023-03-22T00:33:09.491Z,99943.66
2023-03-22T00:33:49.397Z,99948.06
2023-03-22T00:34:29.500Z,99940.78
2023-03-22T00:35:11.392Z,99941.09
2023-03-22T00:36:00.541Z,99947.94
2023-03-22T00:36:40.396Z,99939.44
2023-03-22T00:37:21.572Z,99941.34
2023-03-22T00:38:02.370Z,99944.78
2023-03-22T00:38:43.973Z,99946.19
2023-03-22T00:39:25.396Z,99947.03
2023-03-22T00:40:05.533Z,99942.22
2023-03-22T00:40:46.385Z,99928.81
2023-03-22T00:41:29.555Z,99916.97
2023-03-22T00:42:12.393Z,99927.03
2023-03-22T00:42:52.519Z,99935.94
2023-03-22T00:43:33.372Z,99934.78
2023-03-22T00:44:13.528Z,99925.69
2023-03-22T00:44:53.372Z,99923.41
2023-03-22T00:45:36.225Z,99907.91
2023-03-22T00:46:18.448Z,99910.47
2023-03-22T00:46:58.526Z,99923.09
2023-03-22T00:47:39.408Z,99919.66
2023-03-22T00:48:19.606Z,99927.09
2023-03-22T00:48:59.364Z,99930.94
2023-03-22T00:49:39.486Z,99938.91
2023-03-22T00:50:19.380Z,99932.81
2023-03-22T00:50:59.510Z,99918.13
2023-03-22T00:51:40.383Z,99938.38
2023-03-22T00:52:21.585Z,99919.22
2023-03-22T00:53:01.399Z,99926.44
2023-03-22T00:53:43.488Z,99929.03
2023-03-22T00:54:24.369Z,99931.13
2023-03-22T00:55:19.397Z,99910.53
2023-03-22T00:56:13.393Z,99912.94
2023-03-22T00:57:07.397Z,99908.94
2023-03-22T00:58:01.376Z,99907.75
2023-03-22T00:58:56.426Z,99911.00
2023-03-22T00:59:50.371Z,99903.50
2023-03-22T01:00:44.480Z,99915.44
2023-03-22T01:01:39.378Z,99925.41
2023-03-22T01:02:36.371Z,99925.94
2023-03-22T01:03:24.434Z,99905.22
2023-03-22T01:03:58.533Z,99906.84
2023-03-22T01:04:52.353Z,99916.19
2023-03-22T01:05:28.386Z,99913.25
2023-03-22T01:06:16.359Z,99904.47
2023-03-22T01:06:51.481Z,99901.94
2023-03-22T01:07:38.354Z,99918.03
2023-03-22T01:08:14.861Z,99918.38
2023-03-22T01:08:57.450Z,99900.31
2023-03-22T01:09:38.475Z,99906.84
2023-03-22T01:10:19.340Z,99918.03
2023-03-22T01:10:59.458Z,99901.94
2023-03-22T01:11:39.349Z,99902.41
2023-03-22T01:12:19.477Z,99899.78
2023-03-22T01:13:00.365Z,99901.16
2023-03-22T01:13:42.447Z,99899.00
2023-03-22T01:14:23.389Z,99898.16
2023-03-22T01:15:03.475Z,99905.59
2023-03-22T01:15:44.370Z,99913.72
2023-03-22T01:16:25.526Z,99915.09
2023-03-22T01:17:05.343Z,99916.66
2023-03-22T01:17:45.519Z,99885.38
2023-03-22T01:18:25.384Z,99916.97
2023-03-22T01:19:06.451Z,99879.47
2023-03-22T01:19:47.379Z,99912.16
2023-03-22T01:20:27.452Z,99894.34
2023-03-22T01:21:08.340Z,99901.88
2023-03-22T01:21:49.436Z,99902.94
2023-03-22T01:22:30.335Z,99905.22
2023-03-22T01:23:10.460Z,99903.88
2023-03-22T01:23:50.341Z,99895.22
2023-03-22T01:24:30.478Z,99892.66
2023-03-22T01:25:11.412Z,99901.47
2023-03-22T01:25:51.524Z,99894.34
2023-03-22T01:26:31.335Z,99885.69
2023-03-22T01:27:11.853Z,99879.00
2023-03-22T01:27:52.350Z,99890.69
2023-03-22T01:28:32.488Z,99880.09
2023-03-22T01:29:13.343Z,99885.38
2023-03-22T01:29:53.455Z,99897.75
2023-03-22T01:30:33.357Z,99851.91
2023-03-22T01:31:14.474Z,99887.06
2023-03-22T01:31:55.371Z,99885.03
2023-03-22T01:32:35.631Z,99882.72
2023-03-22T01:33:16.322Z,99863.13
2023-03-22T01:33:56.450Z,99881.94
2023-03-22T01:34:37.349Z,99889.63
2023-03-22T01:35:17.431Z,99860.03
2023-03-22T01:35:58.416Z,99889.63
2023-03-22T01:36:39.417Z,99879.22
2023-03-22T01:37:19.312Z,99861.03
2023-03-22T01:37:59.446Z,99885.22
2023-03-22T01:38:39.332Z,99870.94
2023-03-22T01:39:19.472Z,99879.34
2023-03-22T01:40:01.355Z,99885.50
2023-03-22T01:40:41.788Z,99880.09
2023-03-22T01:41:23.336Z,99850.44
2023-03-22T01:42:03.504Z,99858.56
2023-03-22T01:42:43.346Z,99872.75
2023-03-22T01:43:24.410Z,99863.22
2023-03-22T01:44:26.345Z,99874.28
2023-03-22T01:45:21.423Z,99867.16
2023-03-22T01:46:02.448Z,99850.84
2023-03-22T01:46:43.346Z,99850.50
2023-03-22T01:47:18.412Z,99842.09
2023-03-22T01:48:11.383Z,99870.72
2023-03-22T01:48:49.447Z,99862.53
2023-03-22T01:49:40.314Z,99846.16
2023-03-22T01:50:15.468Z,99865.53
2023-03-22T01:51:15.321Z,99864.22
2023-03-22T01:51:57.348Z,99869.63
2023-03-22T01:52:51.341Z,99857.63
2023-03-22T01:53:53.312Z,99856.47
2023-03-22T01:54:58.313Z,99855.91
2023-03-22T01:55:52.325Z,99870.19
2023-03-22T01:56:50.301Z,99863.13
2023-03-22T01:57:31.349Z,99859.41
2023-03-22T01:58:11.459Z,99855.63
2023-03-22T01:58:52.328Z,99845.09
2023-03-22T01:59:33.438Z,99848.81
2023-03-22T02:00:20.359Z,99866.75
2023-03-22T02:01:02.765Z,99845.09
2023-03-22T02:01:43.368Z,99852.53
2023-03-22T02:02:24.703Z,99855.91
2023-03-22T02:03:05.366Z,99843.03
2023-03-22T02:04:13.519Z,99860.00
2023-03-22T02:04:57.318Z,99842.59
2023-03-22T02:05:38.395Z,99850.59
2023-03-22T02:06:19.301Z,99850.88
2023-03-22T02:07:00.465Z,99838.19
2023-03-22T02:07:41.303Z,99827.81
2023-03-22T02:08:21.328Z,99834.78
2023-03-22T02:08:57.872Z,99818.59
2023-03-22T02:09:48.299Z,99845.41
2023-03-22T02:10:29.412Z,99843.94
2023-03-22T02:11:36.312Z,99839.28
2023-03-22T02:12:22.412Z,99845.47
2023-03-22T02:13:55.356Z,99824.34
2023-03-22T02:15:30.467Z,99844.56
2023-03-22T02:16:43.300Z,99824.03
2023-03-22T02:17:51.298Z,99835.94
2023-03-22T02:19:20.317Z,99846.16
2023-03-22T02:20:38.554Z,99837.69
2023-03-22T02:21:54.282Z,99849.28
2023-03-22T02:23:00.414Z,99838.16
2023-03-22T02:24:14.326Z,99842.25
2023-03-22T02:25:46.356Z,99839.44
2023-03-22T02:27:17.286Z,99840.75
2023-03-22T02:28:26.272Z,99840.38
2023-03-22T02:29:47.305Z,99842.78
2023-03-22T02:31:05.438Z,99835.03
2023-03-22T02:32:24.279Z,99839.44
2023-03-22T02:33:18.310Z,99825.72
2023-03-22T02:34:46.277Z,99841.69
2023-03-22T02:36:03.276Z,99820.19
2023-03-22T02:37:25.278Z,99837.97
2023-03-22T02:39:01.493Z,99837.34
2023-03-22T02:40:02.286Z,99838.66
2023-03-22T02:41:14.306Z,99835.03
2023-03-22T02:42:55.302Z,99827.81
2023-03-22T02:44:24.310Z,99831.16
2023-03-22T02:45:34.287Z,99833.13
2023-03-22T02:46:49.367Z,99829.84
2023-03-22T02:47:49.334Z,99831.78
2023-03-22T02:49:14.292Z,99826.69
2023-03-22T02:50:32.272Z,99828.59
2023-03-22T02:51:31.287Z,99826.63
2023-03-22T02:52:26.305Z,99822.34
2023-03-22T02:53:32.357Z,99829.22
2023-03-22T02:54:28.262Z,99822.34
2023-03-22T02:55:23.357Z,99830.69
2023-03-22T02:56:12.257Z,99808.28
2023-03-22T02:57:18.377Z,99813.38
2023-03-22T02:58:21.328Z,99818.50
2023-03-22T02:59:06.195Z,99822.09
2023-03-22T02:59:48.246Z,99825.66
2023-03-22T03:00:28.407Z,99819.09
2023-03-22T03:01:15.300Z,99815.66
2023-03-22T03:01:59.345Z,99825.19
2023-03-22T03:02:40.253Z,99807.16
2023-03-22T03:03:28.279Z,99804.09
2023-03-22T03:04:28.261Z,99815.84
2023-03-22T03:05:23.288Z,99818.72
2023-03-22T03:06:28.313Z,99818.47
2023-03-22T03:07:25.240Z,99819.81
2023-03-22T03:08:20.235Z,99820.84
2023-03-22T03:09:01.278Z,99823.03
2023-03-22T03:09:44.365Z,99814.69
2023-03-22T03:10:25.249Z,99811.34
2023-03-22T03:11:05.516Z,99820.16
2023-03-22T03:11:46.253Z,99798.66
2023-03-22T03:12:32.366Z,99802.97
2023-03-22T03:13:13.234Z,99818.13
2023-03-22T03:13:56.759Z,99814.28
2023-03-22T03:14:38.303Z,99824.66
2023-03-22T03:15:25.858Z,99823.78
2023-03-22T03:16:08.390Z,99813.09
2023-03-22T03:16:48.477Z,99820.06
2023-03-22T03:17:51.263Z,99817.91
2023-03-22T03:18:38.426Z,99818.75
2023-03-22T03:19:29.230Z,99809.78
2023-03-22T03:20:41.432Z,99803.25
2023-03-22T03:21:55.771Z,99823.78
2023-03-22T03:22:53.236Z,99810.16
2023-03-22T03:24:16.355Z,99819.16
2023-03-22T03:25:24.239Z,99809.94
2023-03-22T03:26:22.260Z,99822.69
2023-03-22T03:27:29.219Z,99824.03
2023-03-22T03:28:50.251Z,99815.53
2023-03-22T03:29:55.243Z,99812.59
2023-03-22T03:31:07.226Z,99816.38
2023-03-22T03:32:08.268Z,99823.97
2023-03-22T03:33:03.312Z,99811.50
2023-03-22T03:33:58.208Z,99821.25
2023-03-22T03:34:55.535Z,99825.91
2023-03-22T03:35:46.268Z,99804.78
2023-03-22T03:36:27.326Z,99817.78
2023-03-22T03:37:42.306Z,99819.25
2023-03-22T03:38:28.359Z,99818.41
2023-03-22T03:39:09.209Z,99813.31
2023-03-22T03:39:58.308Z,99824.03
2023-03-22T03:40:41.450Z,99826.69
2023-03-22T03:41:29.441Z,99812.69
2023-03-22T03:42:10.225Z,99815.22
2023-03-22T03:43:05.251Z,99826.34
2023-03-22T03:44:00.222Z,99824.59
2023-03-22T03:44:54.222Z,99802.75
2023-03-22T03:45:50.497Z,99822.66
2023-03-22T03:46:44.322Z,99824.28
2023-03-22T03:47:39.227Z,99826.00
2023-03-22T03:48:31.244Z,99805.56
2023-03-22T03:49:05.333Z,99803.69
2023-03-22T03:49:52.203Z,99828.72
2023-03-22T03:50:26.316Z,99824.81
2023-03-22T03:51:14.256Z,99837.06
2023-03-22T03:52:00.344Z,99819.00
2023-03-22T03:52:47.198Z,99818.00
2023-03-22T03:53:21.327Z,99821.72
2023-03-22T03:54:02.219Z,99839.44
2023-03-22T03:54:42.751Z,99815.50
2023-03-22T03:55:23.398Z,99848.00
2023-03-22T03:56:04.306Z,99850.72
2023-03-22T03:56:45.199Z,99841.97
2023-03-22T03:57:25.322Z,99843.72
2023-03-22T03:58:05.207Z,99817.66
2023-03-22T03:58:45.517Z,99837.56
2023-03-22T03:59:27.253Z,99835.63
2023-03-22T04:00:07.295Z,99843.00
2023-03-22T04:00:48.179Z,99844.38
2023-03-22T04:01:28.530Z,99842.47
2023-03-22T04:02:09.232Z,99832.75
2023-03-22T04:02:50.440Z,99845.91
2023-03-22T04:03:30.206Z,99836.47
2023-03-22T04:04:10.330Z,99840.41
2023-03-22T04:04:51.232Z,99843.53
2023-03-22T04:05:46.199Z,99830.19
2023-03-22T04:06:41.275Z,99824.63
2023-03-22T04:07:35.224Z,99841.56
2023-03-22T04:08:29.204Z,99815.16
2023-03-22T04:09:24.199Z,99825.03
2023-03-22T04:10:12.225Z,99824.78
2023-03-22T04:10:46.277Z,99821.06
2023-03-22T04:11:33.190Z,99817.56
2023-03-22T04:12:09.642Z,99823.63
2023-03-22T04:12:57.175Z,99814.25
2023-03-22T04:13:31.324Z,99820.47
2023-03-22T04:14:18.202Z,99825.06
2023-03-22T04:14:52.295Z,99833.50
2023-03-22T04:15:33.254Z,99827.09
2023-03-22T04:16:14.312Z,99815.06
2023-03-22T04:16:55.278Z,99811.59
2023-03-22T04:17:38.008Z,99824.22
2023-03-22T04:18:18.176Z,99838.59
2023-03-22T04:18:58.343Z,99840.91
2023-03-22T04:19:39.184Z,99837.34
2023-03-22T04:20:20.927Z,99839.66
2023-03-22T04:21:03.204Z,99816.88
2023-03-22T04:21:44.336Z,99836.63
2023-03-22T04:22:25.198Z,99831.56
2023-03-22T04:23:05.306Z,99825.78
2023-03-22T04:23:46.178Z,99829.16
2023-03-22T04:24:28.278Z,99814.16
2023-03-22T04:25:08.192Z,99833.66
2023-03-22T04:25:50.147Z,99820.91
2023-03-22T04:26:31.190Z,99827.97
2023-03-22T04:27:11.289Z,99818.25
2023-03-22T04:27:57.176Z,99841.34
2023-03-22T04:28:37.371Z,99840.41
2023-03-22T04:29:18.203Z,99826.06
2023-03-22T04:30:00.912Z,99834.91
2023-03-22T04:30:42.661Z,99822.25
2023-03-22T04:31:23.304Z,99825.03
2023-03-22T04:32:03.184Z,99829.84
2023-03-22T04:32:44.270Z,99839.06
2023-03-22T04:33:26.180Z,99826.84
2023-03-22T04:34:06.289Z,99826.13
2023-03-22T04:34:47.182Z,99820.00
2023-03-22T04:35:27.380Z,99841.88
2023-03-22T04:36:07.172Z,99818.44
2023-03-22T04:36:47.320Z,99841.38
2023-03-22T04:37:31.184Z,99837.47
2023-03-22T04:38:12.007Z,99827.25
2023-03-22T04:38:53.156Z,99828.66
2023-03-22T04:39:33.242Z,99840.59
2023-03-22T04:40:15.174Z,99821.59
2023-03-22T04:40:55.307Z,99833.75
2023-03-22T04:41:36.185Z,99824.13
2023-03-22T04:42:17.256Z,99830.63
2023-03-22T04:42:58.200Z,99815.91
2023-03-22T04:43:39.327Z,99841.19
2023-03-22T04:44:19.179Z,99809.41
2023-03-22T04:44:59.546Z,99827.75
2023-03-22T04:45:41.145Z,99821.19
2023-03-22T04:46:21.857Z,99820.13
2023-03-22T04:47:02.175Z,99812.41
2023-03-22T04:47:42.301Z,99818.69
2023-03-22T04:48:24.223Z,99831.28
2023-03-22T04:49:04.260Z,99836.28
2023-03-22T04:49:45.168Z,99821.78
2023-03-22T04:50:28.155Z,99818.38
2023-03-22T04:51:10.172Z,99830.59
2023-03-22T04:51:50.308Z,99811.53
2023-03-22T04:52:30.134Z,99824.47
2023-03-22T04:53:12.345Z,99827.28
2023-03-22T04:53:53.207Z,99823.75
2023-03-22T04:54:34.246Z,99806.47
2023-03-22T04:55:15.154Z,99816.13
2023-03-22T04:55:58.015Z,99823.19
2023-03-22T04:56:39.153Z,99818.97
2023-03-22T04:57:19.234Z,99806.69
2023-03-22T04:58:01.136Z,99811.41
2023-03-22T04:58:44.309Z,99808.72
2023-03-22T04:59:27.215Z,99802.72
2023-03-22T05:00:08.557Z,99802.00
2023-03-22T05:00:48.176Z,99803.81
2023-03-22T05:01:28.312Z,99806.41
2023-03-22T05:02:08.168Z,99801.03
2023-03-22T05:02:49.466Z,99794.63
2023-03-22T05:03:30.130Z,99801.84
2023-03-22T05:04:11.766Z,99804.63
2023-03-22T05:04:53.153Z,99815.94
2023-03-22T05:05:26.990Z,99805.72
2023-03-22T05:06:18.161Z,99803.75
2023-03-22T05:06:51.980Z,99791.19
2023-03-22T05:07:39.169Z,99800.31
2023-03-22T05:08:14.306Z,99794.03
2023-03-22T05:09:03.144Z,99812.84
2023-03-22T05:09:37.016Z,99787.53
2023-03-22T05:10:18.177Z,99797.47
2023-03-22T05:10:52.238Z,99815.25
2023-03-22T05:11:27.958Z,99804.25
2023-03-22T05:12:08.158Z,99796.00
2023-03-22T05:12:42.257Z,99804.38
2023-03-22T05:13:16.038Z,99803.13
2023-03-22T05:13:57.146Z,99797.19
2023-03-22T05:14:31.280Z,99800.63
2023-03-22T05:15:06.961Z,99817.81
2023-03-22T05:15:48.225Z,99812.53
2023-03-22T05:16:22.231Z,99813.63
2023-03-22T05:16:56.024Z,99795.50
2023-03-22T05:17:37.132Z,99804.25
2023-03-22T05:18:11.224Z,99809.84
2023-03-22T05:18:45.479Z,99817.13
2023-03-22T05:19:29.132Z,99808.19
2023-03-22T05:20:10.160Z,99791.78
2023-03-22T05:20:44.120Z,99814.41
2023-03-22T05:21:28.155Z,99809.84
2023-03-22T05:22:02.272Z,99805.47
2023-03-22T05:22:40.585Z,99807.13
2023-03-22T05:23:25.132Z,99794.81
2023-03-22T05:23:59.280Z,99804.88
2023-03-22T05:24:32.938Z,99808.88
2023-03-22T05:25:16.181Z,99794.25
2023-03-22T05:25:50.306Z,99802.63
2023-03-22T05:26:26.416Z,99810.72
2023-03-22T05:27:10.173Z,99810.84
2023-03-22T05:27:44.273Z,99806.44
2023-03-22T05:28:21.380Z,99802.53
2023-03-22T05:29:02.193Z,99806.41
2023-03-22T05:29:36.918Z,99801.88
2023-03-22T05:30:11.494Z,99811.22
2023-03-22T05:30:52.149Z,99809.25
2023-03-22T05:31:28.674Z,99799.03
2023-03-22T05:32:04.249Z,99806.66
2023-03-22T05:32:49.153Z,99812.72
2023-03-22T05:33:23.289Z,99818.63
2023-03-22T05:33:57.317Z,99821.72
2023-03-22T05:34:42.154Z,99806.50
2023-03-22T05:35:17.323Z,99823.19
2023-03-22T05:35:51.238Z,99818.72
2023-03-22T05:36:31.147Z,99810.44
2023-03-22T05:37:05.213Z,99816.56
2023-03-22T05:37:38.914Z,99804.44
2023-03-22T05:38:20.150Z,99822.16
2023-03-22T05:38:54.292Z,99830.13
2023-03-22T05:39:28.964Z,99825.56
2023-03-22T05:40:16.124Z,99817.91
2023-03-22T05:40:51.304Z,99815.66
2023-03-22T05:41:25.279Z,99810.53
2023-03-22T05:42:06.135Z,99821.63
2023-03-22T05:42:40.301Z,99813.84
2023-03-22T05:43:15.541Z,99792.09
2023-03-22T05:43:57.137Z,99813.72
2023-03-22T05:44:31.319Z,99820.38
2023-03-22T05:45:05.790Z,99816.03
2023-03-22T05:45:47.181Z,99807.78
2023-03-22T05:46:21.353Z,99823.94
2023-03-22T05:46:55.024Z,99819.69
2023-03-22T05:47:36.152Z,99815.69
2023-03-22T05:48:11.295Z,99822.53
2023-03-22T05:48:44.977Z,99817.13
2023-03-22T05:49:25.130Z,99812.53
2023-03-22T05:49:59.263Z,99815.41
2023-03-22T05:50:33.413Z,99817.97
2023-03-22T05:51:24.113Z,99798.94
2023-03-22T05:51:58.259Z,99823.66
2023-03-22T05:52:32.588Z,99812.50
2023-03-22T05:53:13.122Z,99821.44
2023-03-22T05:53:47.304Z,99814.44
2023-03-22T05:54:21.271Z,99807.78
2023-03-22T05:55:02.160Z,99817.28
2023-03-22T05:55:36.235Z,99822.78
2023-03-22T05:56:11.342Z,99821.47
2023-03-22T05:56:54.028Z,99822.81
2023-03-22T05:57:30.083Z,99816.88
2023-03-22T05:58:05.043Z,99815.53
2023-03-22T05:58:46.144Z,99814.84
2023-03-22T05:59:20.361Z,99810.03
2023-03-22T05:59:54.949Z,99827.50
2023-03-22T06:00:38.375Z,99817.97
2023-03-22T06:01:16.433Z,99812.53
2023-03-22T06:01:51.157Z,99813.22
2023-03-22T06:02:33.118Z,99816.91
2023-03-22T06:03:08.187Z,99811.38
2023-03-22T06:03:42.414Z,99821.88
2023-03-22T06:04:23.118Z,99827.97
2023-03-22T06:04:57.284Z,99822.56
2023-03-22T06:05:31.928Z,99823.72
2023-03-22T06:06:17.132Z,99820.75
2023-03-22T06:06:51.448Z,99825.03
2023-03-22T06:07:25.372Z,99832.38
2023-03-22T06:08:06.142Z,99822.16
2023-03-22T06:08:40.412Z,99822.38
2023-03-22T06:09:17.515Z,99828.88
2023-03-22T06:09:59.087Z,99816.50
2023-03-22T06:10:33.225Z,99818.44
2023-03-22T06:11:07.815Z,99832.97
2023-03-22T06:11:49.115Z,99830.97
2023-03-22T06:12:27.201Z,99837.09
2023-03-22T06:13:01.954Z,99805.47
2023-03-22T06:13:44.121Z,99824.78
2023-03-22T06:14:18.238Z,99816.56
2023-03-22T06:14:52.490Z,99831.75
2023-03-22T06:15:32.110Z,99814.84
2023-03-22T06:16:08.340Z,99840.03
2023-03-22T06:16:42.026Z,99825.06
2023-03-22T06:17:23.143Z,99828.53
2023-03-22T06:17:57.240Z,99816.56
2023-03-22T06:18:31.579Z,99823.81
2023-03-22T06:19:12.166Z,99831.06
2023-03-22T06:19:46.234Z,99819.88
2023-03-22T06:20:20.944Z,99830.19
2023-03-22T06:21:01.108Z,99830.81
2023-03-22T06:21:35.346Z,99837.06
2023-03-22T06:22:08.889Z,99823.66
2023-03-22T06:22:50.094Z,99819.41
2023-03-22T06:23:24.198Z,99818.00
2023-03-22T06:23:58.937Z,99820.38
2023-03-22T06:24:40.097Z,99803.34
2023-03-22T06:25:16.391Z,99814.09
2023-03-22T06:25:50.010Z,99817.81
2023-03-22T06:26:31.153Z,99829.75
2023-03-22T06:27:05.552Z,99821.34
2023-03-22T06:27:40.194Z,99835.09
2023-03-22T06:28:21.116Z,99806.38
2023-03-22T06:28:55.215Z,99835.31
2023-03-22T06:29:28.931Z,99826.66
2023-03-22T06:30:10.048Z,99816.75
2023-03-22T06:30:51.252Z,99832.09
2023-03-22T06:31:31.101Z,99838.28
2023-03-22T06:32:12.189Z,99821.53
2023-03-22T06:32:52.076Z,99814.13
2023-03-22T06:33:39.099Z,99834.41
2023-03-22T06:34:12.868Z,99828.84
2023-03-22T06:35:00.087Z,99812.19
2023-03-22T06:35:34.666Z,99811.50
2023-03-22T06:36:23.085Z,99823.75
2023-03-22T06:36:57.045Z,99837.06
2023-03-22T06:37:44.066Z,99825.50
2023-03-22T06:38:17.882Z,99831.78
2023-03-22T06:39:05.150Z,99817.31
2023-03-22T06:39:38.886Z,99822.41
2023-03-22T06:40:27.052Z,99810.59
2023-03-22T06:41:00.981Z,99815.22
2023-03-22T06:41:49.103Z,99821.25
2023-03-22T06:42:22.884Z,99815.53
2023-03-22T06:43:10.063Z,99830.31
2023-03-22T06:43:43.986Z,99821.03
2023-03-22T06:44:32.099Z,99825.13
2023-03-22T06:45:07.997Z,99819.25
2023-03-22T06:45:55.098Z,99820.66
2023-03-22T06:46:29.057Z,99822.19
2023-03-22T06:47:18.112Z,99829.94
2023-03-22T06:47:51.996Z,99832.47
2023-03-22T06:48:40.064Z,99841.84
2023-03-22T06:49:13.952Z,99823.88
2023-03-22T06:49:54.086Z,99821.84
2023-03-22T06:50:28.192Z,99824.41
2023-03-22T06:51:01.938Z,99813.72
2023-03-22T06:51:43.061Z,99827.44
2023-03-22T06:52:17.154Z,99818.13
2023-03-22T06:52:52.006Z,99815.28
2023-03-22T06:53:33.108Z,99796.44
2023-03-22T06:54:07.205Z,99818.09
2023-03-22T06:54:40.881Z,99820.31
2023-03-22T06:55:22.043Z,99832.22
2023-03-22T06:55:56.136Z,99827.22
2023-03-22T06:56:29.809Z,99827.81
2023-03-22T06:57:11.067Z,99818.09
2023-03-22T06:57:45.181Z,99820.78
2023-03-22T06:58:19.074Z,99829.22
2023-03-22T06:59:01.071Z,99826.19
2023-03-22T06:59:35.181Z,99817.66
2023-03-22T07:00:10.058Z,99822.91
2023-03-22T07:00:51.082Z,99820.19
2023-03-22T07:01:26.512Z,99806.38
2023-03-22T07:02:01.115Z,99812.88
2023-03-22T07:02:43.034Z,99822.25
2023-03-22T07:03:17.179Z,99826.75
2023-03-22T07:03:51.089Z,99808.25
2023-03-22T07:04:32.077Z,99802.97
2023-03-22T07:05:06.172Z,99812.56
2023-03-22T07:05:39.846Z,99813.63
2023-03-22T07:06:21.076Z,99806.19
2023-03-22T07:06:55.309Z,99799.69
2023-03-22T07:07:28.784Z,99821.59
2023-03-22T07:08:10.032Z,99797.28
2023-03-22T07:08:44.171Z,99789.38
2023-03-22T07:09:18.129Z,99810.91
2023-03-22T07:10:00.059Z,99810.81
2023-03-22T07:10:34.166Z,99815.31
2023-03-22T07:11:08.166Z,99817.75
2023-03-22T07:11:49.060Z,99815.66
2023-03-22T07:12:23.143Z,99821.69
2023-03-22T07:12:57.285Z,99811.81
2023-03-22T07:13:38.052Z,99819.34
2023-03-22T07:14:12.133Z,99812.19
2023-03-22T07:14:45.872Z,99789.66
2023-03-22T07:15:31.064Z,99818.72
2023-03-22T07:16:07.191Z,99802.78
2023-03-22T07:16:41.858Z,99823.09
2023-03-22T07:17:22.052Z,99810.72
2023-03-22T07:17:56.137Z,99799.25
2023-03-22T07:18:30.688Z,99813.78
2023-03-22T07:19:12.032Z,99807.44
2023-03-22T07:19:46.168Z,99822.06
2023-03-22T07:20:23.023Z,99815.13
2023-03-22T07:21:04.032Z,99825.97
2023-03-22T07:21:38.453Z,99820.72
2023-03-22T07:22:12.841Z,99813.88
2023-03-22T07:22:54.091Z,99819.81
2023-03-22T07:23:28.109Z,99817.44
2023-03-22T07:24:03.362Z,99791.56
2023-03-22T07:24:55.686Z,99819.16
2023-03-22T07:25:31.142Z,99804.91
2023-03-22T07:26:05.964Z,99818.50
2023-03-22T07:26:47.042Z,99811.56
2023-03-22T07:27:21.745Z,99822.47
2023-03-22T07:28:03.026Z,99821.25
2023-03-22T07:28:44.634Z,99798.66
2023-03-22T07:29:25.051Z,99806.31
2023-03-22T07:30:05.751Z,99811.69
2023-03-22T07:30:48.028Z,99809.66
2023-03-22T07:31:29.444Z,99801.81
2023-03-22T07:32:10.092Z,99795.09
2023-03-22T07:32:50.362Z,99806.00
2023-03-22T07:33:31.036Z,99789.97
2023-03-22T07:34:12.128Z,99821.22
2023-03-22T07:34:53.032Z,99813.66
2023-03-22T07:35:34.136Z,99805.97
2023-03-22T07:36:17.067Z,99820.84
2023-03-22T07:36:57.191Z,99816.28
2023-03-22T07:37:44.028Z,99809.41
2023-03-22T07:38:18.973Z,99806.94
2023-03-22T07:39:00.040Z,99812.44
2023-03-22T07:39:41.092Z,99811.88
2023-03-22T07:40:22.075Z,99813.91
2023-03-22T07:41:02.139Z,99823.75
2023-03-22T07:41:43.009Z,99802.69
2023-03-22T07:42:23.166Z,99802.69
2023-03-22T07:43:05.038Z,99817.06
2023-03-22T07:43:55.264Z,99822.94
2023-03-22T07:44:39.079Z,99814.94
2023-03-22T07:45:19.199Z,99816.44
2023-03-22T07:46:00.034Z,99812.09
2023-03-22T07:46:40.285Z,99815.41
2023-03-22T07:47:37.705Z,99812.34
2023-03-22T07:48:22.092Z,99808.50
2023-03-22T07:49:04.027Z,99814.25
2023-03-22T07:49:51.046Z,99813.34
2023-03-22T07:50:45.013Z,99822.44
2023-03-22T07:51:39.031Z,99815.66
2023-03-22T07:52:32.997Z,99823.00
2023-03-22T07:53:27.988Z,99804.81
2023-03-22T07:54:32.963Z,99810.81
2023-03-22T07:55:17.086Z,99793.63
2023-03-22T07:55:57.090Z,99801.28
2023-03-22T07:56:38.010Z,99797.00
2023-03-22T07:57:18.114Z,99793.25
2023-03-22T07:57:59.000Z,99802.44
2023-03-22T07:58:40.274Z,99809.25
2023-03-22T07:59:24.002Z,99795.63
2023-03-22T08:00:04.732Z,99794.47
2023-03-22T08:00:45.035Z,99793.94
2023-03-22T08:01:26.673Z,99815.94
2023-03-22T08:02:08.050Z,99811.03
2023-03-22T08:02:48.159Z,99801.53
2023-03-22T08:03:29.076Z,99813.47
2023-03-22T08:04:09.124Z,99819.41
2023-03-22T08:04:51.821Z,99795.97
2023-03-22T08:05:33.599Z,99794.63
2023-03-22T08:06:15.001Z,99810.50
2023-03-22T08:06:58.534Z,99814.03
2023-03-22T08:07:40.170Z,99804.56
2023-03-22T08:08:20.903Z,99793.66
2023-03-22T08:09:02.013Z,99806.19
2023-03-22T08:09:44.373Z,99794.31
2023-03-22T08:10:25.009Z,99811.47
2023-03-22T08:11:05.174Z,99804.63
2023-03-22T08:11:46.031Z,99804.69
2023-03-22T08:12:27.975Z,99789.25
2023-03-22T08:13:08.981Z,99778.31
2023-03-22T08:13:49.109Z,99786.84
2023-03-22T08:14:36.248Z,99793.97
2023-03-22T08:15:18.116Z,99806.94
2023-03-22T08:15:59.069Z,99804.56
2023-03-22T08:16:39.276Z,99803.56
2023-03-22T08:17:19.013Z,99809.81
2023-03-22T08:17:59.126Z,99799.63
2023-03-22T08:18:39.984Z,99804.97
2023-03-22T08:19:20.066Z,99792.50
2023-03-22T08:20:03.983Z,99796.38
2023-03-22T08:20:45.631Z,99789.97
2023-03-22T08:21:27.068Z,99806.56
2023-03-22T08:22:08.104Z,99794.69
2023-03-22T08:22:48.996Z,99797.44
2023-03-22T08:23:40.974Z,99804.97
2023-03-22T08:24:23.100Z,99799.84
2023-03-22T08:25:03.163Z,99796.13
2023-03-22T08:25:43.954Z,99797.63
2023-03-22T08:26:24.131Z,99810.72
2023-03-22T08:27:05.176Z,99816.59
2023-03-22T08:27:45.818Z,99792.31
2023-03-22T08:28:27.041Z,99789.53
2023-03-22T08:29:07.471Z,99794.38
2023-03-22T08:29:48.969Z,99787.56
2023-03-22T08:30:29.156Z,99799.44
2023-03-22T08:31:17.153Z,99797.03